sensor_id;sensor_type;location;lat;lon;timestamp;temperature;humidity
35531;DHT22;21637;53.352;-6.356;2023-05-10T00:01:58;12.10;99.90
35531;DHT22;21637;53.352;-6.356;2023-05-10T00:04:24;12.10;99.90
35531;DHT22;21637;53.352;-6.356;2023-05-10T00:06:53;12.20;99.90
35531;DHT22;21637;53.352;-6.356;2023-05-10T00:09:19;12.20;99.90
35531;DHT22;21637;53.352;-6.356;2023-05-10T00:11:44;12.20;99.90
35531;DHT22;21637;53.352;-6.356;2023-05-10T00:14:11;12.30;99.90
35531;DHT22;21637;53.352;-6.356;2023-05-10T00:16:37;12.30;99.90
35531;DHT22;21637;53.352;-6.356;2023-05-10T00:19:03;12.40;99.90
35531;DHT22;21637;53.352;-6.356;2023-05-10T00:21:28;12.40;99.90
35531;DHT22;21637;53.352;-6.356;2023-05-10T00:23:54;12.40;99.90
35531;DHT22;21637;53.352;-6.356;2023-05-10T00:26:20;12.40;99.90
35531;DHT22;21637;53.352;-6.356;2023-05-10T00:28:46;12.40;99.90
35531;DHT22;21637;53.352;-6.356;2023-05-10T00:31:12;12.40;99.90
35531;DHT22;21637;53.352;-6.356;2023-05-10T00:33:38;12.40;99.90
35531;DHT22;21637;53.352;-6.356;2023-05-10T00:36:04;12.40;99.90
35531;DHT22;21637;53.352;-6.356;2023-05-10T00:38:33;12.30;99.90
35531;DHT22;21637;53.352;-6.356;2023-05-10T00:40:58;12.30;99.90
35531;DHT22;21637;53.352;-6.356;2023-05-10T00:43:24;12.40;99.90
35531;DHT22;21637;53.352;-6.356;2023-05-10T00:45:50;12.40;99.90
35531;DHT22;21637;53.352;-6.356;2023-05-10T00:48:16;12.40;99.90
35531;DHT22;21637;53.352;-6.356;2023-05-10T00:50:42;12.30;99.90
35531;DHT22;21637;53.352;-6.356;2023-05-10T00:53:08;12.40;99.90
35531;DHT22;21637;53.352;-6.356;2023-05-10T00:55:34;12.30;99.90
35531;DHT22;21637;53.352;-6.356;2023-05-10T00:58:00;12.30;99.90
35531;DHT22;21637;53.352;-6.356;2023-05-10T01:00:26;12.30;99.90
35531;DHT22;21637;53.352;-6.356;2023-05-10T01:02:53;12.30;99.90
35531;DHT22;21637;53.352;-6.356;2023-05-10T01:05:19;12.30;99.90
35531;DHT22;21637;53.352;-6.356;2023-05-10T01:07:45;12.30;99.90
35531;DHT22;21637;53.352;-6.356;2023-05-10T01:10:11;12.20;99.90
35531;DHT22;21637;53.352;-6.356;2023-05-10T01:12:39;12.20;99.90
35531;DHT22;21637;53.352;-6.356;2023-05-10T01:15:07;12.30;99.90
35531;DHT22;21637;53.352;-6.356;2023-05-10T01:17:35;12.20;99.90
35531;DHT22;21637;53.352;-6.356;2023-05-10T01:20:01;12.20;99.90
35531;DHT22;21637;53.352;-6.356;2023-05-10T01:34:12;12.10;99.90
35531;DHT22;21637;53.352;-6.356;2023-05-10T01:36:30;12.10;99.90
35531;DHT22;21637;53.352;-6.356;2023-05-10T01:46:40;12.20;99.90
35531;DHT22;21637;53.352;-6.356;2023-05-10T01:49:26;12.20;99.90
35531;DHT22;21637;53.352;-6.356;2023-05-10T01:51:54;12.20;99.90
35531;DHT22;21637;53.352;-6.356;2023-05-10T01:54:22;12.20;99.90
35531;DHT22;21637;53.352;-6.356;2023-05-10T01:56:55;12.20;99.90
35531;DHT22;21637;53.352;-6.356;2023-05-10T01:59:26;12.20;99.90
35531;DHT22;21637;53.352;-6.356;2023-05-10T02:01:54;12.20;99.90
35531;DHT22;21637;53.352;-6.356;2023-05-10T02:04:22;12.20;99.90
35531;DHT22;21637;53.352;-6.356;2023-05-10T02:06:49;12.30;99.90
35531;DHT22;21637;53.352;-6.356;2023-05-10T02:09:17;12.40;99.90
35531;DHT22;21637;53.352;-6.356;2023-05-10T02:11:44;12.40;99.90
35531;DHT22;21637;53.352;-6.356;2023-05-10T02:14:10;12.40;99.90
35531;DHT22;21637;53.352;-6.356;2023-05-10T02:16:38;12.30;99.90
35531;DHT22;21637;53.352;-6.356;2023-05-10T02:19:05;12.30;99.90
35531;DHT22;21637;53.352;-6.356;2023-05-10T02:21:32;12.40;99.90
35531;DHT22;21637;53.352;-6.356;2023-05-10T02:24:00;12.30;99.90
35531;DHT22;21637;53.352;-6.356;2023-05-10T02:26:27;12.20;99.90
35531;DHT22;21637;53.352;-6.356;2023-05-10T02:28:54;12.30;99.90
35531;DHT22;21637;53.352;-6.356;2023-05-10T02:31:22;12.20;99.90
35531;DHT22;21637;53.352;-6.356;2023-05-10T02:33:49;12.30;99.90
35531;DHT22;21637;53.352;-6.356;2023-05-10T02:36:16;12.20;99.90
35531;DHT22;21637;53.352;-6.356;2023-05-10T02:38:43;12.20;99.90
35531;DHT22;21637;53.352;-6.356;2023-05-10T02:41:12;12.20;99.90
35531;DHT22;21637;53.352;-6.356;2023-05-10T02:43:40;12.20;99.90
35531;DHT22;21637;53.352;-6.356;2023-05-10T02:46:06;12.10;99.90
35531;DHT22;21637;53.352;-6.356;2023-05-10T02:48:32;12.20;99.90
35531;DHT22;21637;53.352;-6.356;2023-05-10T02:51:04;12.10;99.90
35531;DHT22;21637;53.352;-6.356;2023-05-10T02:53:31;12.20;99.90
35531;DHT22;21637;53.352;-6.356;2023-05-10T02:56:02;12.10;99.90
35531;DHT22;21637;53.352;-6.356;2023-05-10T02:58:29;12.10;99.90
35531;DHT22;21637;53.352;-6.356;2023-05-10T03:00:55;12.10;99.90
35531;DHT22;21637;53.352;-6.356;2023-05-10T03:03:21;12.20;99.90
35531;DHT22;21637;53.352;-6.356;2023-05-10T03:05:46;12.10;99.90
35531;DHT22;21637;53.352;-6.356;2023-05-10T03:08:12;12.10;99.90
35531;DHT22;21637;53.352;-6.356;2023-05-10T03:10:45;12.10;99.90
35531;DHT22;21637;53.352;-6.356;2023-05-10T03:13:28;12.10;99.90
35531;DHT22;21637;53.352;-6.356;2023-05-10T03:16:16;12.10;99.90
35531;DHT22;21637;53.352;-6.356;2023-05-10T03:19:05;12.10;99.90
35531;DHT22;21637;53.352;-6.356;2023-05-10T03:21:33;12.10;99.90
35531;DHT22;21637;53.352;-6.356;2023-05-10T03:24:09;12.10;99.90
35531;DHT22;21637;53.352;-6.356;2023-05-10T03:26:37;12.10;99.90
35531;DHT22;21637;53.352;-6.356;2023-05-10T03:29:05;12.20;99.90
35531;DHT22;21637;53.352;-6.356;2023-05-10T03:31:31;12.20;99.90
35531;DHT22;21637;53.352;-6.356;2023-05-10T03:33:57;12.10;99.90
35531;DHT22;21637;53.352;-6.356;2023-05-10T03:36:23;12.10;99.90
35531;DHT22;21637;53.352;-6.356;2023-05-10T03:38:49;12.10;99.90
35531;DHT22;21637;53.352;-6.356;2023-05-10T03:41:15;12.10;99.90
35531;DHT22;21637;53.352;-6.356;2023-05-10T03:43:41;12.10;99.90
35531;DHT22;21637;53.352;-6.356;2023-05-10T03:46:07;12.00;99.90
35531;DHT22;21637;53.352;-6.356;2023-05-10T03:48:33;12.00;99.90
35531;DHT22;21637;53.352;-6.356;2023-05-10T03:50:58;12.00;99.90
35531;DHT22;21637;53.352;-6.356;2023-05-10T03:53:24;12.00;99.90
35531;DHT22;21637;53.352;-6.356;2023-05-10T03:55:50;12.00;99.90
35531;DHT22;21637;53.352;-6.356;2023-05-10T03:58:16;11.90;99.90
35531;DHT22;21637;53.352;-6.356;2023-05-10T04:00:42;12.00;99.90
35531;DHT22;21637;53.352;-6.356;2023-05-10T04:03:10;11.90;99.90
35531;DHT22;21637;53.352;-6.356;2023-05-10T04:05:36;11.90;99.90
35531;DHT22;21637;53.352;-6.356;2023-05-10T04:08:03;11.90;99.90
35531;DHT22;21637;53.352;-6.356;2023-05-10T04:10:29;12.00;99.90
35531;DHT22;21637;53.352;-6.356;2023-05-10T04:12:55;11.90;99.90
35531;DHT22;21637;53.352;-6.356;2023-05-10T04:15:21;12.00;99.90
35531;DHT22;21637;53.352;-6.356;2023-05-10T04:17:47;11.90;99.90
35531;DHT22;21637;53.352;-6.356;2023-05-10T04:20:13;11.80;99.90
35531;DHT22;21637;53.352;-6.356;2023-05-10T04:22:39;11.80;99.90
35531;DHT22;21637;53.352;-6.356;2023-05-10T04:25:05;11.80;99.90
35531;DHT22;21637;53.352;-6.356;2023-05-10T04:27:31;11.80;99.90
35531;DHT22;21637;53.352;-6.356;2023-05-10T04:29:57;11.80;99.90
35531;DHT22;21637;53.352;-6.356;2023-05-10T04:32:23;11.80;99.90
35531;DHT22;21637;53.352;-6.356;2023-05-10T04:34:49;11.80;99.90
35531;DHT22;21637;53.352;-6.356;2023-05-10T04:37:16;11.80;99.90
35531;DHT22;21637;53.352;-6.356;2023-05-10T04:39:42;11.80;99.90
35531;DHT22;21637;53.352;-6.356;2023-05-10T04:42:08;11.80;99.90
35531;DHT22;21637;53.352;-6.356;2023-05-10T04:44:34;11.80;99.90
35531;DHT22;21637;53.352;-6.356;2023-05-10T04:47:00;11.70;99.90
35531;DHT22;21637;53.352;-6.356;2023-05-10T04:49:27;11.70;99.90
35531;DHT22;21637;53.352;-6.356;2023-05-10T04:51:53;11.70;99.90
35531;DHT22;21637;53.352;-6.356;2023-05-10T04:54:19;11.60;99.90
35531;DHT22;21637;53.352;-6.356;2023-05-10T04:56:45;11.60;99.90
35531;DHT22;21637;53.352;-6.356;2023-05-10T04:59:11;11.70;99.90
35531;DHT22;21637;53.352;-6.356;2023-05-10T05:01:36;11.70;99.90
35531;DHT22;21637;53.352;-6.356;2023-05-10T05:04:02;11.70;99.90
35531;DHT22;21637;53.352;-6.356;2023-05-10T05:06:28;11.60;99.90
35531;DHT22;21637;53.352;-6.356;2023-05-10T05:08:53;11.70;99.90
35531;DHT22;21637;53.352;-6.356;2023-05-10T05:11:19;11.60;99.90
35531;DHT22;21637;53.352;-6.356;2023-05-10T05:13:46;11.70;99.90
35531;DHT22;21637;53.352;-6.356;2023-05-10T05:16:12;11.70;99.90
35531;DHT22;21637;53.352;-6.356;2023-05-10T05:18:38;11.70;99.90
35531;DHT22;21637;53.352;-6.356;2023-05-10T05:21:13;11.80;99.90
35531;DHT22;21637;53.352;-6.356;2023-05-10T05:23:38;11.80;99.90
35531;DHT22;21637;53.352;-6.356;2023-05-10T05:26:04;11.80;99.90
35531;DHT22;21637;53.352;-6.356;2023-05-10T05:28:30;11.80;99.90
35531;DHT22;21637;53.352;-6.356;2023-05-10T05:30:59;11.80;99.90
35531;DHT22;21637;53.352;-6.356;2023-05-10T05:33:25;11.90;99.90
35531;DHT22;21637;53.352;-6.356;2023-05-10T05:35:50;11.90;99.90
35531;DHT22;21637;53.352;-6.356;2023-05-10T05:38:16;11.80;99.90
35531;DHT22;21637;53.352;-6.356;2023-05-10T05:40:43;11.90;99.90
35531;DHT22;21637;53.352;-6.356;2023-05-10T05:43:08;11.80;99.90
35531;DHT22;21637;53.352;-6.356;2023-05-10T05:45:34;11.80;99.90
35531;DHT22;21637;53.352;-6.356;2023-05-10T05:48:00;11.80;99.90
35531;DHT22;21637;53.352;-6.356;2023-05-10T05:50:26;11.80;99.90
35531;DHT22;21637;53.352;-6.356;2023-05-10T05:52:51;11.70;99.90
35531;DHT22;21637;53.352;-6.356;2023-05-10T05:55:17;11.70;99.90
35531;DHT22;21637;53.352;-6.356;2023-05-10T05:57:43;11.80;99.90
35531;DHT22;21637;53.352;-6.356;2023-05-10T06:00:09;11.90;99.90
35531;DHT22;21637;53.352;-6.356;2023-05-10T06:02:35;12.00;99.90
35531;DHT22;21637;53.352;-6.356;2023-05-10T06:05:00;12.10;99.90
35531;DHT22;21637;53.352;-6.356;2023-05-10T06:07:26;12.20;99.90
35531;DHT22;21637;53.352;-6.356;2023-05-10T06:09:52;12.30;99.90
35531;DHT22;21637;53.352;-6.356;2023-05-10T06:12:18;12.40;99.90
35531;DHT22;21637;53.352;-6.356;2023-05-10T06:14:43;12.50;99.90
35531;DHT22;21637;53.352;-6.356;2023-05-10T06:17:09;12.50;99.90
35531;DHT22;21637;53.352;-6.356;2023-05-10T06:19:35;12.50;99.90
35531;DHT22;21637;53.352;-6.356;2023-05-10T06:22:02;12.50;99.90
35531;DHT22;21637;53.352;-6.356;2023-05-10T06:24:28;12.50;99.90
35531;DHT22;21637;53.352;-6.356;2023-05-10T06:26:53;12.60;99.90
35531;DHT22;21637;53.352;-6.356;2023-05-10T06:29:19;12.60;99.90
35531;DHT22;21637;53.352;-6.356;2023-05-10T06:31:45;12.70;99.90
35531;DHT22;21637;53.352;-6.356;2023-05-10T06:34:10;12.70;99.90
35531;DHT22;21637;53.352;-6.356;2023-05-10T06:36:37;12.70;99.90
35531;DHT22;21637;53.352;-6.356;2023-05-10T06:39:02;12.60;99.90
35531;DHT22;21637;53.352;-6.356;2023-05-10T06:41:28;12.60;99.90
35531;DHT22;21637;53.352;-6.356;2023-05-10T06:43:54;12.50;99.90
35531;DHT22;21637;53.352;-6.356;2023-05-10T06:46:20;12.50;99.90
35531;DHT22;21637;53.352;-6.356;2023-05-10T06:48:45;12.50;99.90
35531;DHT22;21637;53.352;-6.356;2023-05-10T06:51:11;12.60;99.90
35531;DHT22;21637;53.352;-6.356;2023-05-10T06:53:37;12.60;99.90
35531;DHT22;21637;53.352;-6.356;2023-05-10T06:56:03;12.60;99.90
35531;DHT22;21637;53.352;-6.356;2023-05-10T06:58:28;12.60;99.90
35531;DHT22;21637;53.352;-6.356;2023-05-10T07:00:54;12.60;99.90
35531;DHT22;21637;53.352;-6.356;2023-05-10T07:03:20;12.60;99.90
35531;DHT22;21637;53.352;-6.356;2023-05-10T07:05:45;12.60;99.90
35531;DHT22;21637;53.352;-6.356;2023-05-10T07:08:11;12.60;99.90
35531;DHT22;21637;53.352;-6.356;2023-05-10T07:10:37;12.60;99.90
35531;DHT22;21637;53.352;-6.356;2023-05-10T07:13:03;12.60;99.90
35531;DHT22;21637;53.352;-6.356;2023-05-10T07:15:28;12.70;99.90
35531;DHT22;21637;53.352;-6.356;2023-05-10T07:17:54;12.90;99.90
35531;DHT22;21637;53.352;-6.356;2023-05-10T07:20:20;13.10;99.90
35531;DHT22;21637;53.352;-6.356;2023-05-10T07:22:46;13.30;99.90
35531;DHT22;21637;53.352;-6.356;2023-05-10T07:25:12;13.40;99.90
35531;DHT22;21637;53.352;-6.356;2023-05-10T07:27:37;13.50;99.90
35531;DHT22;21637;53.352;-6.356;2023-05-10T07:30:03;13.40;99.90
35531;DHT22;21637;53.352;-6.356;2023-05-10T07:32:29;13.40;99.90
35531;DHT22;21637;53.352;-6.356;2023-05-10T07:34:55;13.40;99.90
35531;DHT22;21637;53.352;-6.356;2023-05-10T07:37:21;13.50;99.90
35531;DHT22;21637;53.352;-6.356;2023-05-10T07:39:47;13.60;99.90
35531;DHT22;21637;53.352;-6.356;2023-05-10T07:42:13;13.70;99.90
35531;DHT22;21637;53.352;-6.356;2023-05-10T07:44:38;13.90;99.90
35531;DHT22;21637;53.352;-6.356;2023-05-10T07:47:04;14.00;99.90
35531;DHT22;21637;53.352;-6.356;2023-05-10T07:49:30;13.90;99.90
35531;DHT22;21637;53.352;-6.356;2023-05-10T07:51:55;13.90;99.90
35531;DHT22;21637;53.352;-6.356;2023-05-10T07:54:21;13.90;99.90
35531;DHT22;21637;53.352;-6.356;2023-05-10T07:56:47;13.80;99.90
35531;DHT22;21637;53.352;-6.356;2023-05-10T07:59:17;13.70;99.90
35531;DHT22;21637;53.352;-6.356;2023-05-10T08:01:43;13.70;99.90
35531;DHT22;21637;53.352;-6.356;2023-05-10T08:04:09;13.50;99.90
35531;DHT22;21637;53.352;-6.356;2023-05-10T08:06:35;13.50;99.90
35531;DHT22;21637;53.352;-6.356;2023-05-10T08:09:01;13.50;99.90
35531;DHT22;21637;53.352;-6.356;2023-05-10T08:11:26;13.50;99.90
35531;DHT22;21637;53.352;-6.356;2023-05-10T08:13:55;13.70;99.90
35531;DHT22;21637;53.352;-6.356;2023-05-10T08:16:20;13.80;99.90
35531;DHT22;21637;53.352;-6.356;2023-05-10T08:18:47;13.90;99.90
35531;DHT22;21637;53.352;-6.356;2023-05-10T08:21:13;13.90;99.90
35531;DHT22;21637;53.352;-6.356;2023-05-10T08:23:39;13.90;99.90
35531;DHT22;21637;53.352;-6.356;2023-05-10T08:26:06;13.90;99.90
35531;DHT22;21637;53.352;-6.356;2023-05-10T08:28:31;13.90;99.90
35531;DHT22;21637;53.352;-6.356;2023-05-10T08:30:57;13.80;99.90
35531;DHT22;21637;53.352;-6.356;2023-05-10T08:33:23;13.80;99.90
35531;DHT22;21637;53.352;-6.356;2023-05-10T08:35:49;13.90;99.90
35531;DHT22;21637;53.352;-6.356;2023-05-10T08:38:14;13.80;99.90
35531;DHT22;21637;53.352;-6.356;2023-05-10T08:40:42;13.80;99.90
35531;DHT22;21637;53.352;-6.356;2023-05-10T08:43:10;13.80;99.90
35531;DHT22;21637;53.352;-6.356;2023-05-10T08:45:42;13.90;99.90
35531;DHT22;21637;53.352;-6.356;2023-05-10T08:48:09;13.90;99.90
35531;DHT22;21637;53.352;-6.356;2023-05-10T08:50:40;13.80;99.90
35531;DHT22;21637;53.352;-6.356;2023-05-10T08:53:13;13.80;99.90
35531;DHT22;21637;53.352;-6.356;2023-05-10T08:55:39;14.00;99.90
35531;DHT22;21637;53.352;-6.356;2023-05-10T08:58:08;14.10;99.90
35531;DHT22;21637;53.352;-6.356;2023-05-10T09:00:34;14.10;99.90
35531;DHT22;21637;53.352;-6.356;2023-05-10T09:03:01;14.00;99.90
35531;DHT22;21637;53.352;-6.356;2023-05-10T09:05:28;14.10;99.90
35531;DHT22;21637;53.352;-6.356;2023-05-10T09:07:53;14.20;99.90
35531;DHT22;21637;53.352;-6.356;2023-05-10T09:10:20;14.30;99.90
35531;DHT22;21637;53.352;-6.356;2023-05-10T09:12:46;14.40;99.90
35531;DHT22;21637;53.352;-6.356;2023-05-10T09:15:15;14.60;99.90
35531;DHT22;21637;53.352;-6.356;2023-05-10T09:17:41;14.70;99.90
35531;DHT22;21637;53.352;-6.356;2023-05-10T09:20:07;14.70;99.90
35531;DHT22;21637;53.352;-6.356;2023-05-10T09:22:34;14.70;99.90
35531;DHT22;21637;53.352;-6.356;2023-05-10T09:25:08;14.80;99.90
35531;DHT22;21637;53.352;-6.356;2023-05-10T09:27:35;15.00;99.90
35531;DHT22;21637;53.352;-6.356;2023-05-10T09:30:02;15.10;99.90
35531;DHT22;21637;53.352;-6.356;2023-05-10T09:32:41;15.10;99.90
35531;DHT22;21637;53.352;-6.356;2023-05-10T09:35:12;14.80;99.90
35531;DHT22;21637;53.352;-6.356;2023-05-10T09:37:42;14.80;99.90
35531;DHT22;21637;53.352;-6.356;2023-05-10T09:40:16;14.70;99.90
35531;DHT22;21637;53.352;-6.356;2023-05-10T09:42:50;14.80;99.90
35531;DHT22;21637;53.352;-6.356;2023-05-10T09:45:16;14.70;99.90
35531;DHT22;21637;53.352;-6.356;2023-05-10T09:47:42;14.70;99.90
35531;DHT22;21637;53.352;-6.356;2023-05-10T09:50:08;14.60;99.90
35531;DHT22;21637;53.352;-6.356;2023-05-10T09:52:56;14.40;99.90
35531;DHT22;21637;53.352;-6.356;2023-05-10T09:55:45;14.40;99.90
35531;DHT22;21637;53.352;-6.356;2023-05-10T09:58:12;14.50;99.90
35531;DHT22;21637;53.352;-6.356;2023-05-10T10:00:47;14.60;99.90
35531;DHT22;21637;53.352;-6.356;2023-05-10T10:03:19;14.80;99.90
35531;DHT22;21637;53.352;-6.356;2023-05-10T10:05:47;14.80;99.90
35531;DHT22;21637;53.352;-6.356;2023-05-10T10:08:13;14.80;99.90
35531;DHT22;21637;53.352;-6.356;2023-05-10T10:10:39;14.80;99.90
35531;DHT22;21637;53.352;-6.356;2023-05-10T10:13:06;14.80;99.90
35531;DHT22;21637;53.352;-6.356;2023-05-10T10:15:33;14.70;99.90
35531;DHT22;21637;53.352;-6.356;2023-05-10T10:17:59;14.60;99.90
35531;DHT22;21637;53.352;-6.356;2023-05-10T10:20:26;14.60;99.90
35531;DHT22;21637;53.352;-6.356;2023-05-10T10:22:52;14.80;99.90
35531;DHT22;21637;53.352;-6.356;2023-05-10T10:25:19;15.20;99.90
35531;DHT22;21637;53.352;-6.356;2023-05-10T10:30:41;15.90;99.90
35531;DHT22;21637;53.352;-6.356;2023-05-10T10:35:36;16.10;99.90
35531;DHT22;21637;53.352;-6.356;2023-05-10T10:38:02;16.20;99.90
35531;DHT22;21637;53.352;-6.356;2023-05-10T10:40:32;16.10;99.90
35531;DHT22;21637;53.352;-6.356;2023-05-10T10:43:25;16.10;99.90
35531;DHT22;21637;53.352;-6.356;2023-05-10T10:46:20;16.10;99.90
35531;DHT22;21637;53.352;-6.356;2023-05-10T10:48:48;16.40;99.90
35531;DHT22;21637;53.352;-6.356;2023-05-10T10:51:15;16.40;99.90
35531;DHT22;21637;53.352;-6.356;2023-05-10T10:53:41;16.30;99.90
35531;DHT22;21637;53.352;-6.356;2023-05-10T10:56:09;16.20;99.90
35531;DHT22;21637;53.352;-6.356;2023-05-10T10:58:36;16.10;99.90
35531;DHT22;21637;53.352;-6.356;2023-05-10T11:01:15;15.90;99.90
35531;DHT22;21637;53.352;-6.356;2023-05-10T11:06:33;15.80;99.90
35531;DHT22;21637;53.352;-6.356;2023-05-10T11:09:11;15.90;99.90
35531;DHT22;21637;53.352;-6.356;2023-05-10T11:11:54;16.10;99.90
35531;DHT22;21637;53.352;-6.356;2023-05-10T11:14:24;16.20;99.90
35531;DHT22;21637;53.352;-6.356;2023-05-10T11:16:50;16.20;99.90
35531;DHT22;21637;53.352;-6.356;2023-05-10T11:19:17;16.30;99.90
35531;DHT22;21637;53.352;-6.356;2023-05-10T11:21:51;16.20;99.90
35531;DHT22;21637;53.352;-6.356;2023-05-10T11:24:22;16.10;99.90
35531;DHT22;21637;53.352;-6.356;2023-05-10T11:26:50;16.10;99.90
35531;DHT22;21637;53.352;-6.356;2023-05-10T11:29:19;16.00;99.90
35531;DHT22;21637;53.352;-6.356;2023-05-10T11:31:46;15.90;99.90
35531;DHT22;21637;53.352;-6.356;2023-05-10T11:34:22;16.00;99.90
35531;DHT22;21637;53.352;-6.356;2023-05-10T11:36:51;16.00;99.90
35531;DHT22;21637;53.352;-6.356;2023-05-10T11:39:19;15.90;99.90
35531;DHT22;21637;53.352;-6.356;2023-05-10T11:41:48;16.00;99.90
35531;DHT22;21637;53.352;-6.356;2023-05-10T11:44:14;16.10;99.90
35531;DHT22;21637;53.352;-6.356;2023-05-10T11:46:40;16.20;99.90
35531;DHT22;21637;53.352;-6.356;2023-05-10T11:49:07;16.20;99.90
35531;DHT22;21637;53.352;-6.356;2023-05-10T11:51:34;16.30;99.90
35531;DHT22;21637;53.352;-6.356;2023-05-10T11:54:09;16.30;99.90
35531;DHT22;21637;53.352;-6.356;2023-05-10T11:56:36;16.00;99.90
35531;DHT22;21637;53.352;-6.356;2023-05-10T11:59:01;15.70;99.90
35531;DHT22;21637;53.352;-6.356;2023-05-10T12:01:28;15.50;99.90
35531;DHT22;21637;53.352;-6.356;2023-05-10T12:03:55;15.40;99.90
35531;DHT22;21637;53.352;-6.356;2023-05-10T12:06:27;15.30;99.90
35531;DHT22;21637;53.352;-6.356;2023-05-10T12:08:53;15.10;99.90
35531;DHT22;21637;53.352;-6.356;2023-05-10T12:11:20;15.20;99.90
35531;DHT22;21637;53.352;-6.356;2023-05-10T12:13:50;15.40;99.90
35531;DHT22;21637;53.352;-6.356;2023-05-10T12:16:20;15.60;99.90
35531;DHT22;21637;53.352;-6.356;2023-05-10T12:18:56;15.70;99.90
35531;DHT22;21637;53.352;-6.356;2023-05-10T12:21:22;16.00;99.90
35531;DHT22;21637;53.352;-6.356;2023-05-10T12:23:52;15.90;99.90
35531;DHT22;21637;53.352;-6.356;2023-05-10T12:26:18;15.90;99.90
35531;DHT22;21637;53.352;-6.356;2023-05-10T12:28:47;16.00;99.90
35531;DHT22;21637;53.352;-6.356;2023-05-10T12:31:12;15.70;99.90
35531;DHT22;21637;53.352;-6.356;2023-05-10T12:33:43;15.70;99.90
35531;DHT22;21637;53.352;-6.356;2023-05-10T12:36:10;15.60;99.90
35531;DHT22;21637;53.352;-6.356;2023-05-10T12:38:40;15.60;99.90
35531;DHT22;21637;53.352;-6.356;2023-05-10T12:41:18;15.50;99.90
35531;DHT22;21637;53.352;-6.356;2023-05-10T12:43:44;15.60;99.90
35531;DHT22;21637;53.352;-6.356;2023-05-10T12:46:11;15.70;99.90
35531;DHT22;21637;53.352;-6.356;2023-05-10T12:48:38;15.90;99.90
35531;DHT22;21637;53.352;-6.356;2023-05-10T12:51:05;16.00;99.90
35531;DHT22;21637;53.352;-6.356;2023-05-10T12:53:31;15.90;99.90
35531;DHT22;21637;53.352;-6.356;2023-05-10T12:55:57;16.00;99.90
35531;DHT22;21637;53.352;-6.356;2023-05-10T12:58:23;15.70;99.90
35531;DHT22;21637;53.352;-6.356;2023-05-10T13:00:48;15.50;99.90
35531;DHT22;21637;53.352;-6.356;2023-05-10T13:03:14;15.40;99.90
35531;DHT22;21637;53.352;-6.356;2023-05-10T13:05:41;15.40;99.90
35531;DHT22;21637;53.352;-6.356;2023-05-10T13:08:07;15.40;99.90
35531;DHT22;21637;53.352;-6.356;2023-05-10T13:10:32;15.60;99.90
35531;DHT22;21637;53.352;-6.356;2023-05-10T13:12:58;15.90;99.90
35531;DHT22;21637;53.352;-6.356;2023-05-10T13:15:25;16.00;99.90
35531;DHT22;21637;53.352;-6.356;2023-05-10T13:17:51;16.20;99.90
35531;DHT22;21637;53.352;-6.356;2023-05-10T13:20:17;16.30;99.90
35531;DHT22;21637;53.352;-6.356;2023-05-10T13:22:43;16.20;99.90
35531;DHT22;21637;53.352;-6.356;2023-05-10T13:25:10;16.20;99.90
35531;DHT22;21637;53.352;-6.356;2023-05-10T13:27:37;16.20;99.90
35531;DHT22;21637;53.352;-6.356;2023-05-10T13:30:03;16.20;99.90
35531;DHT22;21637;53.352;-6.356;2023-05-10T13:32:29;16.30;99.90
35531;DHT22;21637;53.352;-6.356;2023-05-10T13:34:55;16.30;99.90
35531;DHT22;21637;53.352;-6.356;2023-05-10T13:37:21;16.60;99.90
35531;DHT22;21637;53.352;-6.356;2023-05-10T13:39:47;16.70;99.90
35531;DHT22;21637;53.352;-6.356;2023-05-10T13:42:13;16.70;99.90
35531;DHT22;21637;53.352;-6.356;2023-05-10T13:44:39;16.80;99.90
35531;DHT22;21637;53.352;-6.356;2023-05-10T13:47:05;16.90;99.90
35531;DHT22;21637;53.352;-6.356;2023-05-10T13:49:31;16.80;99.90
35531;DHT22;21637;53.352;-6.356;2023-05-10T13:51:57;16.90;99.90
35531;DHT22;21637;53.352;-6.356;2023-05-10T13:54:23;17.20;99.90
35531;DHT22;21637;53.352;-6.356;2023-05-10T13:56:49;17.30;99.90
35531;DHT22;21637;53.352;-6.356;2023-05-10T13:59:15;17.30;99.90
35531;DHT22;21637;53.352;-6.356;2023-05-10T14:01:41;17.40;99.90
35531;DHT22;21637;53.352;-6.356;2023-05-10T14:04:08;17.40;99.90
35531;DHT22;21637;53.352;-6.356;2023-05-10T14:06:36;17.10;99.90
35531;DHT22;21637;53.352;-6.356;2023-05-10T14:09:02;16.70;99.90
35531;DHT22;21637;53.352;-6.356;2023-05-10T14:11:28;16.70;99.90
35531;DHT22;21637;53.352;-6.356;2023-05-10T14:13:54;16.80;99.90
35531;DHT22;21637;53.352;-6.356;2023-05-10T14:16:20;16.90;99.90
35531;DHT22;21637;53.352;-6.356;2023-05-10T14:18:46;16.90;99.90
35531;DHT22;21637;53.352;-6.356;2023-05-10T14:21:12;17.00;99.90
35531;DHT22;21637;53.352;-6.356;2023-05-10T14:23:38;17.00;99.90
35531;DHT22;21637;53.352;-6.356;2023-05-10T14:26:04;17.20;99.90
35531;DHT22;21637;53.352;-6.356;2023-05-10T14:28:30;17.20;99.90
35531;DHT22;21637;53.352;-6.356;2023-05-10T14:30:56;17.30;99.90
35531;DHT22;21637;53.352;-6.356;2023-05-10T14:33:22;17.30;99.90
35531;DHT22;21637;53.352;-6.356;2023-05-10T14:35:48;17.30;99.90
35531;DHT22;21637;53.352;-6.356;2023-05-10T14:38:14;17.40;99.90
35531;DHT22;21637;53.352;-6.356;2023-05-10T14:40:40;17.40;99.90
35531;DHT22;21637;53.352;-6.356;2023-05-10T14:43:06;17.50;99.90
35531;DHT22;21637;53.352;-6.356;2023-05-10T14:45:32;17.60;99.90
35531;DHT22;21637;53.352;-6.356;2023-05-10T14:47:58;17.40;99.90
35531;DHT22;21637;53.352;-6.356;2023-05-10T14:50:24;17.40;99.90
35531;DHT22;21637;53.352;-6.356;2023-05-10T14:52:50;17.40;99.90
35531;DHT22;21637;53.352;-6.356;2023-05-10T14:55:15;17.20;99.90
35531;DHT22;21637;53.352;-6.356;2023-05-10T14:57:41;17.20;99.90
35531;DHT22;21637;53.352;-6.356;2023-05-10T15:00:08;17.20;99.90
35531;DHT22;21637;53.352;-6.356;2023-05-10T15:02:34;17.10;99.90
35531;DHT22;21637;53.352;-6.356;2023-05-10T15:05:00;16.90;99.90
35531;DHT22;21637;53.352;-6.356;2023-05-10T15:07:26;16.80;99.90
35531;DHT22;21637;53.352;-6.356;2023-05-10T15:09:51;17.20;99.90
35531;DHT22;21637;53.352;-6.356;2023-05-10T15:12:18;17.60;99.90
35531;DHT22;21637;53.352;-6.356;2023-05-10T15:14:44;17.60;99.90
35531;DHT22;21637;53.352;-6.356;2023-05-10T15:17:10;17.40;99.90
35531;DHT22;21637;53.352;-6.356;2023-05-10T15:19:35;17.40;99.90
35531;DHT22;21637;53.352;-6.356;2023-05-10T15:22:02;17.20;99.90
35531;DHT22;21637;53.352;-6.356;2023-05-10T15:24:28;16.80;99.90
35531;DHT22;21637;53.352;-6.356;2023-05-10T15:26:54;16.60;99.90
35531;DHT22;21637;53.352;-6.356;2023-05-10T15:29:20;16.60;99.90
35531;DHT22;21637;53.352;-6.356;2023-05-10T15:31:47;16.60;99.90
35531;DHT22;21637;53.352;-6.356;2023-05-10T15:34:13;16.70;99.90
35531;DHT22;21637;53.352;-6.356;2023-05-10T15:36:39;16.70;99.90
35531;DHT22;21637;53.352;-6.356;2023-05-10T15:39:05;16.50;99.90
35531;DHT22;21637;53.352;-6.356;2023-05-10T15:41:31;16.60;99.90
35531;DHT22;21637;53.352;-6.356;2023-05-10T15:43:58;16.80;99.90